GTI8986 PANC-KMIA
Flight info
| Callsign | GTI8986 |
|---|---|
| Flight time | N/A |
| Altitude | 31000 |
| Route | JOH YAK J541 SSR 5726N13228W/N0486F330 YXS DESNU HASOS TIMMR FSD Q19 DSM J45 IRK/N0481F350 FAM J151 GETME VLKNN Q139 MGMRY ACORI FROGZ5 |
| Aircraft | B77L/H-SDE1E2E3FGHIJ2J3J4J5M1RWXY/LB1D1 |
Departure
| Time | 2026-05-08 06:56 |
|---|---|
| Airport | Ted Stevens Anchorage International Airport (PANC) |
Arrival
| Time | N/A |
|---|---|
| Airport | Miami International Airport (KMIA) |
| Time | Latitude | Longitude | Altitude | Speed | Heading |
|---|---|---|---|---|---|
| 2026-05-08 06:41 | 61.19656 | -150.00618 | 166 ft | 0 kts | 341° |
| 2026-05-08 06:43 | 61.19644 | -150.00609 | 166 ft | 2 kts | 341° |
| 2026-05-08 06:43 | 61.19630 | -150.00600 | 166 ft | 2 kts | 341° |
| 2026-05-08 06:43 | 61.19616 | -150.00589 | 166 ft | 2 kts | 341° |
| 2026-05-08 06:44 | 61.19601 | -150.00580 | 166 ft | 2 kts | 341° |
| 2026-05-08 06:44 | 61.19592 | -150.00574 | 166 ft | 2 kts | 333° |
| 2026-05-08 06:44 | 61.19582 | -150.00552 | 166 ft | 2 kts | 284° |
| 2026-05-08 06:44 | 61.19582 | -150.00534 | 166 ft | 0 kts | 260° |
| 2026-05-08 06:45 | 61.19582 | -150.00525 | 166 ft | 0 kts | 261° |
| 2026-05-08 06:46 | 61.19581 | -150.00549 | 166 ft | 6 kts | 263° |
| 2026-05-08 06:46 | 61.19567 | -150.00702 | 166 ft | 13 kts | 256° |
| 2026-05-08 06:47 | 61.19552 | -150.00816 | 166 ft | 11 kts | 245° |
| 2026-05-08 06:47 | 61.19456 | -150.00827 | 166 ft | 13 kts | 165° |
| 2026-05-08 06:47 | 61.19350 | -150.00766 | 166 ft | 17 kts | 165° |
| 2026-05-08 06:47 | 61.19224 | -150.00694 | 166 ft | 19 kts | 165° |
| 2026-05-08 06:48 | 61.19085 | -150.00615 | 166 ft | 21 kts | 165° |
| 2026-05-08 06:48 | 61.18930 | -150.00528 | 166 ft | 23 kts | 163° |
| 2026-05-08 06:48 | 61.18765 | -150.00427 | 166 ft | 25 kts | 164° |
| 2026-05-08 06:48 | 61.18595 | -150.00331 | 166 ft | 24 kts | 165° |
| 2026-05-08 06:49 | 61.18433 | -150.00236 | 166 ft | 23 kts | 164° |
| 2026-05-08 06:49 | 61.18272 | -150.00145 | 166 ft | 23 kts | 164° |
| 2026-05-08 06:49 | 61.18111 | -150.00052 | 166 ft | 24 kts | 164° |
| 2026-05-08 06:49 | 61.17948 | -149.99957 | 166 ft | 25 kts | 165° |
| 2026-05-08 06:50 | 61.17777 | -149.99858 | 166 ft | 26 kts | 164° |
| 2026-05-08 06:50 | 61.17602 | -149.99759 | 166 ft | 26 kts | 164° |
| 2026-05-08 06:50 | 61.17427 | -149.99660 | 166 ft | 24 kts | 165° |
| 2026-05-08 06:50 | 61.17271 | -149.99573 | 166 ft | 21 kts | 165° |
| 2026-05-08 06:51 | 61.17153 | -149.99497 | 166 ft | 14 kts | 144° |
| 2026-05-08 06:51 | 61.17125 | -149.99315 | 166 ft | 15 kts | 90° |
| 2026-05-08 06:51 | 61.17124 | -149.99085 | 166 ft | 16 kts | 91° |
| 2026-05-08 06:51 | 61.17123 | -149.98851 | 166 ft | 16 kts | 90° |
| 2026-05-08 06:52 | 61.17121 | -149.98613 | 165 ft | 16 kts | 90° |
| 2026-05-08 06:52 | 61.17120 | -149.98372 | 166 ft | 17 kts | 90° |
| 2026-05-08 06:52 | 61.17120 | -149.98105 | 166 ft | 19 kts | 90° |
| 2026-05-08 06:52 | 61.17119 | -149.97803 | 165 ft | 22 kts | 90° |
| 2026-05-08 06:53 | 61.17120 | -149.97466 | 165 ft | 24 kts | 88° |
| 2026-05-08 06:53 | 61.17123 | -149.97136 | 165 ft | 24 kts | 89° |
| 2026-05-08 06:53 | 61.17125 | -149.96883 | 165 ft | 9 kts | 101° |
| 2026-05-08 06:53 | 61.17078 | -149.96811 | 165 ft | 8 kts | 173° |
| 2026-05-08 06:54 | 61.17014 | -149.96808 | 165 ft | 11 kts | 180° |
| 2026-05-08 06:54 | 61.16925 | -149.96854 | 165 ft | 13 kts | 228° |
| 2026-05-08 06:54 | 61.16885 | -149.97015 | 165 ft | 11 kts | 246° |
| 2026-05-08 06:54 | 61.16854 | -149.97170 | 165 ft | 12 kts | 247° |
| 2026-05-08 06:55 | 61.16811 | -149.97327 | 165 ft | 13 kts | 238° |
| 2026-05-08 06:55 | 61.16789 | -149.97499 | 165 ft | 7 kts | 269° |
| 2026-05-08 06:55 | 61.16788 | -149.97530 | 165 ft | 8 kts | 269° |
| 2026-05-08 06:55 | 61.16787 | -149.98173 | 166 ft | 82 kts | 270° |
| 2026-05-08 06:56 | 61.16786 | -149.99826 | 166 ft | 149 kts | 270° |
| 2026-05-08 06:56 | 61.16789 | -150.02403 | 293 ft | 195 kts | 268° |
| 2026-05-08 06:56 | 61.16720 | -150.05237 | 1090 ft | 199 kts | 263° |
| 2026-05-08 06:56 | 61.16618 | -150.08041 | 1950 ft | 206 kts | 266° |
| 2026-05-08 06:57 | 61.16550 | -150.11112 | 2684 ft | 221 kts | 263° |
| 2026-05-08 06:57 | 61.16029 | -150.14123 | 3363 ft | 234 kts | 228° |
| 2026-05-08 06:57 | 61.14676 | -150.16058 | 4037 ft | 247 kts | 191° |
| 2026-05-08 06:57 | 61.12989 | -150.15886 | 4889 ft | 254 kts | 155° |
| 2026-05-08 06:58 | 61.11595 | -150.13733 | 6034 ft | 255 kts | 129° |
| 2026-05-08 06:58 | 61.10752 | -150.10519 | 7111 ft | 260 kts | 112° |
| 2026-05-08 06:58 | 61.10155 | -150.06976 | 8138 ft | 266 kts | 110° |
| 2026-05-08 06:58 | 61.09560 | -150.03334 | 9142 ft | 271 kts | 111° |
| 2026-05-08 06:59 | 61.08952 | -149.99620 | 10178 ft | 274 kts | 111° |
| 2026-05-08 06:59 | 61.08332 | -149.95842 | 10865 ft | 289 kts | 111° |
| 2026-05-08 06:59 | 61.07671 | -149.91829 | 11445 ft | 307 kts | 111° |
| 2026-05-08 06:59 | 61.06957 | -149.87505 | 12055 ft | 325 kts | 111° |
| 2026-05-08 07:00 | 61.06206 | -149.82965 | 12672 ft | 342 kts | 111° |
| 2026-05-08 07:00 | 61.05420 | -149.78223 | 13280 ft | 359 kts | 111° |
| 2026-05-08 07:00 | 61.04594 | -149.73254 | 13880 ft | 376 kts | 111° |
| 2026-05-08 07:00 | 61.03720 | -149.68007 | 14470 ft | 392 kts | 111° |
| 2026-05-08 07:01 | 61.02826 | -149.62645 | 15295 ft | 402 kts | 111° |
| 2026-05-08 07:01 | 61.01904 | -149.57134 | 16141 ft | 408 kts | 112° |
| 2026-05-08 07:01 | 61.00978 | -149.51611 | 17040 ft | 414 kts | 112° |
| 2026-05-08 07:01 | 61.00027 | -149.45955 | 17814 ft | 421 kts | 112° |
| 2026-05-08 07:02 | 60.99057 | -149.40205 | 18615 ft | 427 kts | 112° |
| 2026-05-08 07:02 | 60.98081 | -149.34442 | 19346 ft | 433 kts | 114° |
| 2026-05-08 07:02 | 60.97076 | -149.28525 | 20065 ft | 439 kts | 114° |
| 2026-05-08 07:02 | 60.96059 | -149.22549 | 20745 ft | 445 kts | 114° |
| 2026-05-08 07:03 | 60.95003 | -149.16373 | 21429 ft | 451 kts | 114° |
| 2026-05-08 07:03 | 60.93962 | -149.10297 | 22083 ft | 456 kts | 114° |
| 2026-05-08 07:03 | 60.92906 | -149.04158 | 22697 ft | 461 kts | 114° |
| 2026-05-08 07:03 | 60.91820 | -148.97862 | 23287 ft | 466 kts | 114° |
| 2026-05-08 07:04 | 60.90737 | -148.91606 | 23892 ft | 470 kts | 115° |
| 2026-05-08 07:04 | 60.89637 | -148.85278 | 24450 ft | 475 kts | 115° |
| 2026-05-08 07:04 | 60.88502 | -148.78764 | 25022 ft | 480 kts | 115° |
| 2026-05-08 07:04 | 60.87376 | -148.72319 | 25651 ft | 482 kts | 115° |
| 2026-05-08 07:05 | 60.86237 | -148.65825 | 26238 ft | 485 kts | 115° |
| 2026-05-08 07:05 | 60.85087 | -148.59294 | 26694 ft | 490 kts | 115° |
| 2026-05-08 07:05 | 60.83934 | -148.52766 | 27160 ft | 494 kts | 114° |
| 2026-05-08 07:05 | 60.82754 | -148.46112 | 27628 ft | 498 kts | 115° |
| 2026-05-08 07:06 | 60.81570 | -148.39450 | 28152 ft | 500 kts | 115° |
| 2026-05-08 07:06 | 60.80381 | -148.32790 | 28650 ft | 502 kts | 115° |
| 2026-05-08 07:06 | 60.79163 | -148.25984 | 29061 ft | 505 kts | 115° |
| 2026-05-08 07:06 | 60.77966 | -148.19325 | 29429 ft | 509 kts | 115° |
| 2026-05-08 07:07 | 60.76733 | -148.12488 | 29943 ft | 509 kts | 115° |
| 2026-05-08 07:07 | 60.75510 | -148.05719 | 30537 ft | 507 kts | 115° |
| 2026-05-08 07:07 | 60.74300 | -147.99045 | 30979 ft | 507 kts | 115° |
| 2026-05-08 07:07 | 60.73066 | -147.92281 | 31043 ft | 516 kts | 115° |
| 2026-05-08 07:08 | 60.70519 | -147.78394 | 31055 ft | 532 kts | 115° |
| 2026-05-08 07:08 | 60.67939 | -147.64381 | 31056 ft | 515 kts | 115° |
| 2026-05-08 07:09 | 60.65449 | -147.50943 | 31052 ft | 507 kts | 116° |
| 2026-05-08 07:09 | 60.62944 | -147.37540 | 31052 ft | 507 kts | 116° |
| 2026-05-08 07:10 | 60.60412 | -147.24086 | 31059 ft | 506 kts | 117° |
| 2026-05-08 07:10 | 60.57903 | -147.10849 | 31041 ft | 507 kts | 117° |
| 2026-05-08 07:11 | 60.55343 | -146.97435 | 31045 ft | 509 kts | 117° |
| 2026-05-08 07:11 | 60.52797 | -146.84178 | 31051 ft | 508 kts | 117° |
| 2026-05-08 07:12 | 60.50219 | -146.70853 | 31054 ft | 512 kts | 117° |
| 2026-05-08 07:12 | 60.47800 | -146.57257 | 31036 ft | 514 kts | 109° |
| 2026-05-08 07:13 | 60.46201 | -146.43069 | 31051 ft | 523 kts | 108° |
| 2026-05-08 07:13 | 60.44623 | -146.28825 | 31035 ft | 519 kts | 109° |
| 2026-05-08 07:14 | 60.43019 | -146.14571 | 31026 ft | 521 kts | 109° |
| 2026-05-08 07:14 | 60.41396 | -146.00317 | 31050 ft | 522 kts | 109° |
| 2026-05-08 07:15 | 60.39761 | -145.86118 | 31031 ft | 523 kts | 109° |
| 2026-05-08 07:15 | 60.38098 | -145.71840 | 31028 ft | 524 kts | 109° |
| 2026-05-08 07:16 | 60.36422 | -145.57591 | 31033 ft | 523 kts | 109° |
| 2026-05-08 07:16 | 60.34725 | -145.43317 | 31067 ft | 525 kts | 109° |
| 2026-05-08 07:17 | 60.33009 | -145.29024 | 31041 ft | 524 kts | 110° |
| 2026-05-08 07:17 | 60.31297 | -145.14900 | 31047 ft | 522 kts | 110° |
| 2026-05-08 07:18 | 60.29548 | -145.00627 | 31039 ft | 524 kts | 110° |
| 2026-05-08 07:18 | 60.27802 | -144.86508 | 31054 ft | 525 kts | 110° |
| 2026-05-08 07:19 | 60.26028 | -144.72304 | 31051 ft | 524 kts | 110° |
| 2026-05-08 07:19 | 60.24230 | -144.58048 | 31042 ft | 526 kts | 110° |
| 2026-05-08 07:20 | 60.22425 | -144.43863 | 31030 ft | 526 kts | 110° |
| 2026-05-08 07:20 | 60.20605 | -144.29703 | 31024 ft | 526 kts | 111° |
| 2026-05-08 07:21 | 60.18768 | -144.15536 | 31041 ft | 525 kts | 111° |
| 2026-05-08 07:21 | 60.16921 | -144.01428 | 31018 ft | 525 kts | 111° |
| 2026-05-08 07:22 | 60.15048 | -143.87260 | 31020 ft | 527 kts | 111° |
| 2026-05-08 07:22 | 60.13158 | -143.73085 | 31030 ft | 527 kts | 111° |
| 2026-05-08 07:23 | 60.11253 | -143.58931 | 31035 ft | 528 kts | 111° |
| 2026-05-08 07:23 | 60.09345 | -143.44875 | 31034 ft | 528 kts | 111° |
| 2026-05-08 07:24 | 60.07395 | -143.30644 | 31046 ft | 527 kts | 111° |
| 2026-05-08 07:24 | 60.05459 | -143.16640 | 31041 ft | 526 kts | 112° |
| 2026-05-08 07:25 | 60.03499 | -143.02589 | 31036 ft | 526 kts | 111° |
| 2026-05-08 07:26 | 60.00527 | -142.81514 | 31037 ft | 526 kts | 111° |
| 2026-05-08 07:26 | 59.98546 | -142.67616 | 31060 ft | 526 kts | 111° |
| 2026-05-08 07:27 | 59.96531 | -142.53607 | 31050 ft | 526 kts | 111° |
| 2026-05-08 07:27 | 59.94505 | -142.39632 | 31063 ft | 525 kts | 111° |
| 2026-05-08 07:28 | 59.92508 | -142.25978 | 31062 ft | 525 kts | 112° |
| 2026-05-08 07:28 | 59.90465 | -142.12118 | 31064 ft | 526 kts | 112° |
| 2026-05-08 07:29 | 59.88399 | -141.98225 | 31078 ft | 524 kts | 112° |
| 2026-05-08 07:29 | 59.86317 | -141.84331 | 31071 ft | 522 kts | 112° |
| 2026-05-08 07:30 | 59.84231 | -141.70535 | 31073 ft | 524 kts | 112° |
| 2026-05-08 07:30 | 59.82140 | -141.56813 | 31076 ft | 523 kts | 112° |
| 2026-05-08 07:31 | 59.80028 | -141.43065 | 31082 ft | 522 kts | 112° |
| 2026-05-08 07:31 | 59.77941 | -141.29590 | 31077 ft | 522 kts | 112° |
| 2026-05-08 07:32 | 59.75803 | -141.15889 | 31082 ft | 522 kts | 113° |
| 2026-05-08 07:32 | 59.73645 | -141.02181 | 31078 ft | 522 kts | 113° |
| 2026-05-08 07:33 | 59.71486 | -140.88565 | 31066 ft | 523 kts | 113° |
| 2026-05-08 07:33 | 59.69302 | -140.74889 | 31070 ft | 521 kts | 113° |
| 2026-05-08 07:34 | 59.67118 | -140.61334 | 31064 ft | 522 kts | 112° |
| 2026-05-08 07:34 | 59.64907 | -140.47713 | 31070 ft | 522 kts | 112° |
| 2026-05-08 07:35 | 59.62684 | -140.34122 | 31065 ft | 522 kts | 113° |
| 2026-05-08 07:35 | 59.60451 | -140.20567 | 31069 ft | 519 kts | 113° |
| 2026-05-08 07:36 | 59.58209 | -140.07065 | 31067 ft | 519 kts | 113° |
| 2026-05-08 07:36 | 59.55967 | -139.93665 | 31064 ft | 518 kts | 113° |
| 2026-05-08 07:37 | 59.53701 | -139.80223 | 31069 ft | 519 kts | 113° |
| 2026-05-08 07:37 | 59.51308 | -139.66866 | 31069 ft | 514 kts | 119° |
| 2026-05-08 07:38 | 59.48072 | -139.54416 | 31080 ft | 513 kts | 123° |
| 2026-05-08 07:38 | 59.44747 | -139.42218 | 31064 ft | 509 kts | 123° |
| 2026-05-08 07:39 | 59.41386 | -139.30066 | 31067 ft | 509 kts | 124° |
| 2026-05-08 07:39 | 59.37986 | -139.17886 | 31053 ft | 508 kts | 124° |
| 2026-05-08 07:40 | 59.34588 | -139.05815 | 31046 ft | 507 kts | 124° |
| 2026-05-08 07:40 | 59.31175 | -138.93765 | 31044 ft | 508 kts | 124° |
| 2026-05-08 07:41 | 59.27750 | -138.81749 | 31043 ft | 508 kts | 124° |
| 2026-05-08 07:41 | 59.24313 | -138.69756 | 31047 ft | 509 kts | 124° |
| 2026-05-08 07:42 | 59.20852 | -138.57744 | 31048 ft | 507 kts | 124° |
| 2026-05-08 07:42 | 59.17384 | -138.45775 | 31041 ft | 508 kts | 124° |
| 2026-05-08 07:43 | 59.13924 | -138.33894 | 31026 ft | 507 kts | 124° |
| 2026-05-08 07:43 | 59.10429 | -138.21956 | 31011 ft | 506 kts | 124° |
| 2026-05-08 07:44 | 59.06932 | -138.10071 | 31017 ft | 507 kts | 124° |
| 2026-05-08 07:44 | 59.03439 | -137.98261 | 30990 ft | 506 kts | 124° |
| 2026-05-08 07:45 | 58.99950 | -137.86525 | 30945 ft | 506 kts | 124° |
| 2026-05-08 07:45 | 58.96434 | -137.74759 | 30908 ft | 504 kts | 124° |
| 2026-05-08 07:46 | 58.92916 | -137.63043 | 30902 ft | 506 kts | 124° |
| 2026-05-08 07:46 | 58.89383 | -137.51337 | 30906 ft | 504 kts | 124° |
| 2026-05-08 07:47 | 58.85841 | -137.39661 | 30914 ft | 505 kts | 124° |
| 2026-05-08 07:47 | 58.82298 | -137.28041 | 30914 ft | 504 kts | 125° |
| 2026-05-08 07:48 | 58.78741 | -137.16434 | 30914 ft | 507 kts | 125° |
| 2026-05-08 07:48 | 58.75156 | -137.04788 | 30917 ft | 502 kts | 125° |
| 2026-05-08 07:49 | 58.71615 | -136.93344 | 30930 ft | 502 kts | 125° |
| 2026-05-08 07:49 | 58.68047 | -136.81871 | 30939 ft | 503 kts | 125° |
| 2026-05-08 07:50 | 58.64458 | -136.70387 | 30971 ft | 502 kts | 125° |
| 2026-05-08 07:50 | 58.60882 | -136.59000 | 31010 ft | 501 kts | 125° |
| 2026-05-08 07:51 | 58.57283 | -136.47595 | 31039 ft | 501 kts | 125° |
| 2026-05-08 07:51 | 58.53680 | -136.36232 | 31040 ft | 501 kts | 125° |
| 2026-05-08 07:52 | 58.50070 | -136.24902 | 31039 ft | 500 kts | 126° |
| 2026-05-08 07:52 | 58.46458 | -136.13623 | 31035 ft | 501 kts | 126° |
| 2026-05-08 07:53 | 58.42812 | -136.02290 | 31042 ft | 500 kts | 126° |
| 2026-05-08 07:53 | 58.39183 | -135.91066 | 31042 ft | 500 kts | 126° |
| 2026-05-08 07:54 | 58.35557 | -135.79906 | 31046 ft | 499 kts | 126° |
| 2026-05-08 07:54 | 58.31899 | -135.68697 | 31039 ft | 499 kts | 126° |
| 2026-05-08 07:55 | 58.28250 | -135.57568 | 31037 ft | 498 kts | 125° |
| 2026-05-08 07:55 | 58.24593 | -135.46469 | 31040 ft | 499 kts | 125° |
| 2026-05-08 07:56 | 58.20922 | -135.35381 | 31030 ft | 500 kts | 125° |
| 2026-05-08 07:56 | 58.17328 | -135.24136 | 31016 ft | 502 kts | 121° |
| 2026-05-08 07:57 | 58.14304 | -135.12196 | 31016 ft | 502 kts | 119° |
| 2026-05-08 07:57 | 58.11322 | -135.00345 | 31016 ft | 502 kts | 119° |
| 2026-05-08 07:58 | 58.08315 | -134.88474 | 31023 ft | 502 kts | 119° |
| 2026-05-08 07:58 | 58.05302 | -134.76660 | 31022 ft | 502 kts | 119° |
| 2026-05-08 07:59 | 58.02268 | -134.64828 | 31005 ft | 503 kts | 119° |
| 2026-05-08 07:59 | 57.99231 | -134.53055 | 30976 ft | 503 kts | 119° |
| 2026-05-08 08:00 | 57.96162 | -134.41219 | 30969 ft | 503 kts | 119° |
| 2026-05-08 08:00 | 57.93087 | -134.29422 | 30987 ft | 504 kts | 120° |
| 2026-05-08 08:01 | 57.90010 | -134.17679 | 30990 ft | 503 kts | 120° |
| 2026-05-08 08:01 | 57.86898 | -134.05870 | 30998 ft | 503 kts | 120° |
| 2026-05-08 08:02 | 57.83792 | -133.94142 | 31002 ft | 503 kts | 120° |
| 2026-05-08 08:02 | 57.80683 | -133.82461 | 31009 ft | 503 kts | 120° |
| 2026-05-08 08:03 | 57.77560 | -133.70790 | 31018 ft | 503 kts | 120° |
| 2026-05-08 08:03 | 57.74441 | -133.59198 | 31020 ft | 504 kts | 120° |
| 2026-05-08 08:04 | 57.71294 | -133.47556 | 31023 ft | 504 kts | 120° |
| 2026-05-08 08:04 | 57.68119 | -133.35872 | 31015 ft | 503 kts | 120° |
| 2026-05-08 08:05 | 57.64955 | -133.24292 | 30998 ft | 504 kts | 121° |
| 2026-05-08 08:05 | 57.61773 | -133.12703 | 30975 ft | 505 kts | 121° |
| 2026-05-08 08:06 | 57.58557 | -133.01045 | 30947 ft | 504 kts | 121° |
| 2026-05-08 08:06 | 57.55350 | -132.89482 | 30946 ft | 504 kts | 121° |
| 2026-05-08 08:07 | 57.52150 | -132.78001 | 30959 ft | 505 kts | 121° |
| 2026-05-08 08:07 | 57.48907 | -132.66426 | 30957 ft | 506 kts | 121° |
| 2026-05-08 08:08 | 57.45652 | -132.54866 | 30947 ft | 506 kts | 121° |
| 2026-05-08 08:08 | 57.42413 | -132.43427 | 30951 ft | 506 kts | 121° |
| 2026-05-08 08:09 | 57.39125 | -132.31921 | 30946 ft | 505 kts | 122° |
| 2026-05-08 08:09 | 57.35816 | -132.20404 | 30952 ft | 506 kts | 122° |
| 2026-05-08 08:10 | 57.32526 | -132.09006 | 30957 ft | 505 kts | 122° |
| 2026-05-08 08:10 | 57.29232 | -131.97647 | 30995 ft | 504 kts | 122° |
| 2026-05-08 08:11 | 57.25895 | -131.86200 | 30977 ft | 506 kts | 122° |
| 2026-05-08 08:11 | 57.22577 | -131.74872 | 30961 ft | 507 kts | 122° |
| 2026-05-08 08:12 | 57.19214 | -131.63441 | 30973 ft | 506 kts | 122° |
| 2026-05-08 08:12 | 57.15857 | -131.52095 | 31014 ft | 507 kts | 121° |
| 2026-05-08 08:13 | 57.12476 | -131.40715 | 30992 ft | 506 kts | 121° |
| 2026-05-08 08:13 | 57.09085 | -131.29364 | 30969 ft | 506 kts | 122° |
| 2026-05-08 08:14 | 57.05692 | -131.18059 | 30974 ft | 508 kts | 122° |
| 2026-05-08 08:14 | 57.02296 | -131.06793 | 30977 ft | 508 kts | 122° |
| 2026-05-08 08:15 | 56.98879 | -130.95519 | 30981 ft | 508 kts | 122° |
| 2026-05-08 08:15 | 56.95445 | -130.84238 | 30988 ft | 508 kts | 122° |
| 2026-05-08 08:16 | 56.92014 | -130.73021 | 30992 ft | 507 kts | 122° |
| 2026-05-08 08:16 | 56.88551 | -130.61757 | 30984 ft | 509 kts | 122° |
| 2026-05-08 08:17 | 56.85064 | -130.50468 | 30979 ft | 509 kts | 122° |
| 2026-05-08 08:17 | 56.81587 | -130.39261 | 30976 ft | 510 kts | 122° |
| 2026-05-08 08:18 | 56.78073 | -130.27992 | 30968 ft | 509 kts | 123° |